Ana Sayfa
METAR-TAF:

METAR-TAF

Havaalanları :

Shelby, Kuzey Carolina, Amerika Birleşik Devletleri

Enlem: 35-15N, Boylam: 081-36W, yükseklik: 258 m

Güncel hava durumu gözlemi

Rapor saat 04:35 UTC de 24 dakika önce yapıldı.
Rüzgar kuzey/kuzeydoğudan 4 kt
Sıcaklık -3°C
Nem 86%
Basınç 1027 hPa
Görüş mesafesi: 16.1 km
1000 ft yükseklikte parçalı bulutlu
2900 ft yükseklikte çok bulutlu

METAR: KEHO 220435Z AUTO 03004KT 10SM SCT010 OVC029 M03/M05 A3034 RMK AO2 T10301047

Saat: 23:59 (04:59 UTC)


TAF: eksik

4.000'den fazla havaalanı için hava durumu gözlemleri ve tahminleri (METAR ve TAF raporları).

Kullanılabilir istasyonlar harita üzerinde sarı ve kırmızı noktalarla gösterilir.

İstasyonun adını görmek için fareyi noktanın üzerinde gezdirin.

Sonrasında hava gözlem ve tahminlerini görmek için tıklayın.

Haritayı değiştirmek için: yaklaştırmak için siyah artı işaretli yeşil düğmeye ve uzaklaştırmak için de eksi işaretli düğmeye hızla tıklayın; bitişik haritalar için yeşil okları kullanın.


METAR-TAF: